sensor_id;sensor_type;location;lat;lon;timestamp;P1;durP1;ratioP1;P2;durP2;ratioP2
10985;SDS011;5546;48.714;8.738;2023-03-13T00:00:06;13.53;;;7.07;;
10985;SDS011;5546;48.714;8.738;2023-03-13T00:02:34;15.13;;;5.77;;
10985;SDS011;5546;48.714;8.738;2023-03-13T00:04:59;10.30;;;5.33;;
10985;SDS011;5546;48.714;8.738;2023-03-13T00:07:25;12.50;;;5.17;;
10985;SDS011;5546;48.714;8.738;2023-03-13T00:09:51;14.70;;;6.60;;
10985;SDS011;5546;48.714;8.738;2023-03-13T00:12:17;13.03;;;6.30;;
10985;SDS011;5546;48.714;8.738;2023-03-13T00:14:46;9.40;;;5.93;;
10985;SDS011;5546;48.714;8.738;2023-03-13T00:17:19;14.50;;;5.20;;
10985;SDS011;5546;48.714;8.738;2023-03-13T00:19:48;11.77;;;5.37;;
10985;SDS011;5546;48.714;8.738;2023-03-13T00:22:26;11.97;;;6.17;;
10985;SDS011;5546;48.714;8.738;2023-03-13T00:25:16;12.70;;;5.80;;
10985;SDS011;5546;48.714;8.738;2023-03-13T00:27:42;7.93;;;5.07;;
10985;SDS011;5546;48.714;8.738;2023-03-13T00:30:08;12.57;;;5.10;;
10985;SDS011;5546;48.714;8.738;2023-03-13T00:32:44;13.47;;;5.83;;
10985;SDS011;5546;48.714;8.738;2023-03-13T00:37:46;9.00;;;3.53;;
10985;SDS011;5546;48.714;8.738;2023-03-13T00:40:12;11.40;;;4.80;;
10985;SDS011;5546;48.714;8.738;2023-03-13T00:42:40;11.97;;;4.20;;
10985;SDS011;5546;48.714;8.738;2023-03-13T00:45:06;10.80;;;3.70;;
10985;SDS011;5546;48.714;8.738;2023-03-13T00:47:48;7.33;;;3.50;;
10985;SDS011;5546;48.714;8.738;2023-03-13T00:50:14;16.60;;;6.07;;
10985;SDS011;5546;48.714;8.738;2023-03-13T00:52:42;11.47;;;4.30;;
10985;SDS011;5546;48.714;8.738;2023-03-13T00:55:50;8.20;;;4.60;;
10985;SDS011;5546;48.714;8.738;2023-03-13T00:58:00;11.83;;;4.63;;
10985;SDS011;5546;48.714;8.738;2023-03-13T01:00:25;8.30;;;3.27;;
10985;SDS011;5546;48.714;8.738;2023-03-13T01:02:54;10.73;;;3.97;;
10985;SDS011;5546;48.714;8.738;2023-03-13T01:05:20;7.83;;;3.70;;
10985;SDS011;5546;48.714;8.738;2023-03-13T01:07:55;8.10;;;4.00;;
10985;SDS011;5546;48.714;8.738;2023-03-13T01:10:37;9.43;;;3.63;;
10985;SDS011;5546;48.714;8.738;2023-03-13T01:16:28;11.47;;;4.20;;
10985;SDS011;5546;48.714;8.738;2023-03-13T01:19:05;9.80;;;3.57;;
10985;SDS011;5546;48.714;8.738;2023-03-13T01:24:32;13.80;;;3.77;;
10985;SDS011;5546;48.714;8.738;2023-03-13T01:27:01;11.23;;;3.67;;
10985;SDS011;5546;48.714;8.738;2023-03-13T01:32:16;7.90;;;3.50;;
10985;SDS011;5546;48.714;8.738;2023-03-13T01:35:08;4.47;;;3.07;;
10985;SDS011;5546;48.714;8.738;2023-03-13T01:37:43;5.50;;;2.97;;
10985;SDS011;5546;48.714;8.738;2023-03-13T01:40:09;6.50;;;3.10;;
10985;SDS011;5546;48.714;8.738;2023-03-13T01:48:19;7.43;;;4.13;;
10985;SDS011;5546;48.714;8.738;2023-03-13T01:50:46;9.27;;;4.70;;
10985;SDS011;5546;48.714;8.738;2023-03-13T01:53:12;6.27;;;3.13;;
10985;SDS011;5546;48.714;8.738;2023-03-13T01:55:37;12.27;;;3.40;;
10985;SDS011;5546;48.714;8.738;2023-03-13T01:58:03;7.07;;;3.33;;
10985;SDS011;5546;48.714;8.738;2023-03-13T02:00:29;8.77;;;3.00;;
10985;SDS011;5546;48.714;8.738;2023-03-13T02:03:01;10.47;;;4.20;;
10985;SDS011;5546;48.714;8.738;2023-03-13T02:05:30;7.93;;;2.73;;
10985;SDS011;5546;48.714;8.738;2023-03-13T02:08:06;9.53;;;2.73;;
10985;SDS011;5546;48.714;8.738;2023-03-13T02:10:38;5.20;;;2.50;;
10985;SDS011;5546;48.714;8.738;2023-03-13T02:13:10;6.97;;;2.80;;
10985;SDS011;5546;48.714;8.738;2023-03-13T02:15:39;6.07;;;2.80;;
10985;SDS011;5546;48.714;8.738;2023-03-13T02:18:05;7.87;;;2.80;;
10985;SDS011;5546;48.714;8.738;2023-03-13T02:20:31;9.73;;;2.70;;
10985;SDS011;5546;48.714;8.738;2023-03-13T02:22:59;6.07;;;2.57;;
10985;SDS011;5546;48.714;8.738;2023-03-13T02:25:48;11.57;;;2.57;;
10985;SDS011;5546;48.714;8.738;2023-03-13T02:28:21;9.00;;;2.67;;
10985;SDS011;5546;48.714;8.738;2023-03-13T02:30:50;4.10;;;2.17;;
10985;SDS011;5546;48.714;8.738;2023-03-13T02:33:18;8.60;;;2.87;;
10985;SDS011;5546;48.714;8.738;2023-03-13T02:35:45;8.17;;;2.87;;
10985;SDS011;5546;48.714;8.738;2023-03-13T02:38:13;7.87;;;2.77;;
10985;SDS011;5546;48.714;8.738;2023-03-13T02:40:44;10.10;;;2.70;;
10985;SDS011;5546;48.714;8.738;2023-03-13T02:43:33;5.33;;;2.60;;
10985;SDS011;5546;48.714;8.738;2023-03-13T02:45:59;6.40;;;2.40;;
10985;SDS011;5546;48.714;8.738;2023-03-13T02:48:40;8.63;;;2.97;;
10985;SDS011;5546;48.714;8.738;2023-03-13T02:51:28;5.63;;;2.43;;
10985;SDS011;5546;48.714;8.738;2023-03-13T02:54:06;4.53;;;2.10;;
10985;SDS011;5546;48.714;8.738;2023-03-13T02:56:35;8.57;;;2.43;;
10985;SDS011;5546;48.714;8.738;2023-03-13T02:59:04;7.50;;;2.30;;
10985;SDS011;5546;48.714;8.738;2023-03-13T03:01:30;5.60;;;2.20;;
10985;SDS011;5546;48.714;8.738;2023-03-13T03:03:56;7.80;;;2.40;;
10985;SDS011;5546;48.714;8.738;2023-03-13T03:06:22;8.67;;;2.57;;
10985;SDS011;5546;48.714;8.738;2023-03-13T03:08:48;4.93;;;2.03;;
10985;SDS011;5546;48.714;8.738;2023-03-13T03:11:14;6.07;;;2.10;;
10985;SDS011;5546;48.714;8.738;2023-03-13T03:13:39;8.03;;;2.10;;
10985;SDS011;5546;48.714;8.738;2023-03-13T03:16:08;4.77;;;2.03;;
10985;SDS011;5546;48.714;8.738;2023-03-13T03:18:35;5.63;;;2.00;;
10985;SDS011;5546;48.714;8.738;2023-03-13T03:21:02;3.93;;;1.40;;
10985;SDS011;5546;48.714;8.738;2023-03-13T03:23:30;4.70;;;1.60;;
10985;SDS011;5546;48.714;8.738;2023-03-13T03:25:58;3.40;;;1.77;;
10985;SDS011;5546;48.714;8.738;2023-03-13T03:28:24;4.13;;;1.30;;
10985;SDS011;5546;48.714;8.738;2023-03-13T03:30:50;4.93;;;1.50;;
10985;SDS011;5546;48.714;8.738;2023-03-13T03:33:18;4.37;;;1.40;;
10985;SDS011;5546;48.714;8.738;2023-03-13T03:35:44;4.03;;;1.60;;
10985;SDS011;5546;48.714;8.738;2023-03-13T03:38:10;6.63;;;1.60;;
10985;SDS011;5546;48.714;8.738;2023-03-13T03:40:35;5.20;;;1.70;;
10985;SDS011;5546;48.714;8.738;2023-03-13T03:43:01;3.37;;;1.20;;
10985;SDS011;5546;48.714;8.738;2023-03-13T03:45:26;2.83;;;1.30;;
10985;SDS011;5546;48.714;8.738;2023-03-13T03:47:52;4.83;;;1.40;;
10985;SDS011;5546;48.714;8.738;2023-03-13T03:50:17;4.97;;;1.40;;
10985;SDS011;5546;48.714;8.738;2023-03-13T03:52:43;3.40;;;1.30;;
10985;SDS011;5546;48.714;8.738;2023-03-13T03:55:08;5.43;;;1.60;;
10985;SDS011;5546;48.714;8.738;2023-03-13T03:57:34;3.67;;;1.43;;
10985;SDS011;5546;48.714;8.738;2023-03-13T03:59:59;1.83;;;1.30;;
10985;SDS011;5546;48.714;8.738;2023-03-13T04:02:25;5.50;;;1.40;;
10985;SDS011;5546;48.714;8.738;2023-03-13T04:04:51;3.37;;;1.20;;
10985;SDS011;5546;48.714;8.738;2023-03-13T04:07:16;3.03;;;1.50;;
10985;SDS011;5546;48.714;8.738;2023-03-13T04:09:42;1.87;;;1.20;;
10985;SDS011;5546;48.714;8.738;2023-03-13T04:12:07;3.63;;;1.20;;
10985;SDS011;5546;48.714;8.738;2023-03-13T04:14:33;2.10;;;1.20;;
10985;SDS011;5546;48.714;8.738;2023-03-13T04:16:59;3.93;;;1.50;;
10985;SDS011;5546;48.714;8.738;2023-03-13T04:19:24;5.57;;;1.23;;
10985;SDS011;5546;48.714;8.738;2023-03-13T04:21:49;3.20;;;1.20;;
10985;SDS011;5546;48.714;8.738;2023-03-13T04:24:15;3.97;;;1.53;;
10985;SDS011;5546;48.714;8.738;2023-03-13T04:26:40;4.37;;;1.40;;
10985;SDS011;5546;48.714;8.738;2023-03-13T04:29:06;2.37;;;1.30;;
10985;SDS011;5546;48.714;8.738;2023-03-13T04:31:31;2.20;;;1.00;;
10985;SDS011;5546;48.714;8.738;2023-03-13T04:33:57;3.93;;;1.20;;
10985;SDS011;5546;48.714;8.738;2023-03-13T04:36:23;2.80;;;1.27;;
10985;SDS011;5546;48.714;8.738;2023-03-13T04:38:48;2.57;;;1.30;;
10985;SDS011;5546;48.714;8.738;2023-03-13T04:41:14;4.93;;;1.10;;
10985;SDS011;5546;48.714;8.738;2023-03-13T04:43:39;2.70;;;1.27;;
10985;SDS011;5546;48.714;8.738;2023-03-13T04:46:05;3.37;;;1.33;;
10985;SDS011;5546;48.714;8.738;2023-03-13T04:48:30;2.07;;;1.47;;
10985;SDS011;5546;48.714;8.738;2023-03-13T04:50:56;4.47;;;1.53;;
10985;SDS011;5546;48.714;8.738;2023-03-13T04:53:21;3.60;;;1.27;;
10985;SDS011;5546;48.714;8.738;2023-03-13T04:55:47;4.70;;;1.40;;
10985;SDS011;5546;48.714;8.738;2023-03-13T04:58:14;2.10;;;1.33;;
10985;SDS011;5546;48.714;8.738;2023-03-13T05:00:40;1.37;;;0.97;;
10985;SDS011;5546;48.714;8.738;2023-03-13T05:03:05;1.10;;;0.90;;
10985;SDS011;5546;48.714;8.738;2023-03-13T05:05:32;1.47;;;1.00;;
10985;SDS011;5546;48.714;8.738;2023-03-13T05:07:59;3.33;;;1.17;;
10985;SDS011;5546;48.714;8.738;2023-03-13T05:10:25;1.77;;;1.00;;
10985;SDS011;5546;48.714;8.738;2023-03-13T05:12:50;3.43;;;1.27;;
10985;SDS011;5546;48.714;8.738;2023-03-13T05:15:16;1.80;;;1.10;;
10985;SDS011;5546;48.714;8.738;2023-03-13T05:17:41;1.67;;;0.97;;
10985;SDS011;5546;48.714;8.738;2023-03-13T05:20:07;1.10;;;0.80;;
10985;SDS011;5546;48.714;8.738;2023-03-13T05:22:35;2.20;;;1.53;;
10985;SDS011;5546;48.714;8.738;2023-03-13T05:25:01;1.93;;;1.30;;
10985;SDS011;5546;48.714;8.738;2023-03-13T05:27:27;1.20;;;0.90;;
10985;SDS011;5546;48.714;8.738;2023-03-13T05:29:53;1.60;;;0.90;;
10985;SDS011;5546;48.714;8.738;2023-03-13T05:32:18;1.80;;;1.30;;
10985;SDS011;5546;48.714;8.738;2023-03-13T05:34:44;2.83;;;1.20;;
10985;SDS011;5546;48.714;8.738;2023-03-13T05:37:09;2.70;;;2.17;;
10985;SDS011;5546;48.714;8.738;2023-03-13T05:39:35;3.27;;;2.10;;
10985;SDS011;5546;48.714;8.738;2023-03-13T05:42:00;3.80;;;2.53;;
10985;SDS011;5546;48.714;8.738;2023-03-13T05:44:26;4.87;;;1.53;;
10985;SDS011;5546;48.714;8.738;2023-03-13T05:46:51;1.97;;;1.20;;
10985;SDS011;5546;48.714;8.738;2023-03-13T05:49:17;1.53;;;0.90;;
10985;SDS011;5546;48.714;8.738;2023-03-13T05:51:42;2.27;;;1.17;;
10985;SDS011;5546;48.714;8.738;2023-03-13T05:54:08;5.77;;;1.23;;
10985;SDS011;5546;48.714;8.738;2023-03-13T05:56:34;4.53;;;1.27;;
10985;SDS011;5546;48.714;8.738;2023-03-13T05:58:59;1.37;;;1.00;;
10985;SDS011;5546;48.714;8.738;2023-03-13T06:01:25;1.90;;;1.20;;
10985;SDS011;5546;48.714;8.738;2023-03-13T06:03:50;1.50;;;1.00;;
10985;SDS011;5546;48.714;8.738;2023-03-13T06:06:16;2.37;;;1.20;;
10985;SDS011;5546;48.714;8.738;2023-03-13T06:08:41;1.90;;;0.97;;
10985;SDS011;5546;48.714;8.738;2023-03-13T06:11:07;2.93;;;1.07;;
10985;SDS011;5546;48.714;8.738;2023-03-13T06:13:32;3.23;;;1.30;;
10985;SDS011;5546;48.714;8.738;2023-03-13T06:15:58;2.60;;;1.53;;
10985;SDS011;5546;48.714;8.738;2023-03-13T06:18:24;3.00;;;1.17;;
10985;SDS011;5546;48.714;8.738;2023-03-13T06:20:54;3.43;;;1.50;;
10985;SDS011;5546;48.714;8.738;2023-03-13T06:23:22;1.97;;;1.17;;
10985;SDS011;5546;48.714;8.738;2023-03-13T06:25:47;1.27;;;0.87;;
10985;SDS011;5546;48.714;8.738;2023-03-13T06:28:13;3.80;;;1.17;;
10985;SDS011;5546;48.714;8.738;2023-03-13T06:30:39;4.70;;;2.50;;
10985;SDS011;5546;48.714;8.738;2023-03-13T06:33:04;1.77;;;1.00;;
10985;SDS011;5546;48.714;8.738;2023-03-13T06:35:30;3.60;;;2.30;;
10985;SDS011;5546;48.714;8.738;2023-03-13T06:37:56;3.83;;;1.30;;
10985;SDS011;5546;48.714;8.738;2023-03-13T06:40:21;2.37;;;1.33;;
10985;SDS011;5546;48.714;8.738;2023-03-13T06:42:47;2.40;;;1.20;;
10985;SDS011;5546;48.714;8.738;2023-03-13T06:45:12;3.63;;;1.40;;
10985;SDS011;5546;48.714;8.738;2023-03-13T06:47:38;2.30;;;1.30;;
10985;SDS011;5546;48.714;8.738;2023-03-13T06:50:04;4.17;;;2.03;;
10985;SDS011;5546;48.714;8.738;2023-03-13T06:52:29;1.90;;;1.03;;
10985;SDS011;5546;48.714;8.738;2023-03-13T06:54:55;1.70;;;1.30;;
10985;SDS011;5546;48.714;8.738;2023-03-13T06:57:20;3.43;;;1.37;;
10985;SDS011;5546;48.714;8.738;2023-03-13T06:59:46;2.37;;;1.00;;
10985;SDS011;5546;48.714;8.738;2023-03-13T07:02:11;0.97;;;0.87;;
10985;SDS011;5546;48.714;8.738;2023-03-13T07:04:37;1.73;;;1.00;;
10985;SDS011;5546;48.714;8.738;2023-03-13T07:07:03;2.47;;;1.00;;
10985;SDS011;5546;48.714;8.738;2023-03-13T07:09:29;1.43;;;0.87;;
10985;SDS011;5546;48.714;8.738;2023-03-13T07:11:55;1.77;;;1.03;;
10985;SDS011;5546;48.714;8.738;2023-03-13T07:14:22;1.00;;;0.80;;
10985;SDS011;5546;48.714;8.738;2023-03-13T07:16:47;2.00;;;1.37;;
10985;SDS011;5546;48.714;8.738;2023-03-13T07:19:13;1.73;;;1.10;;
10985;SDS011;5546;48.714;8.738;2023-03-13T07:21:39;1.67;;;0.80;;
10985;SDS011;5546;48.714;8.738;2023-03-13T07:24:05;1.20;;;1.10;;
10985;SDS011;5546;48.714;8.738;2023-03-13T07:26:30;4.33;;;2.73;;
10985;SDS011;5546;48.714;8.738;2023-03-13T07:28:56;4.00;;;2.00;;
10985;SDS011;5546;48.714;8.738;2023-03-13T07:31:22;2.50;;;1.50;;
10985;SDS011;5546;48.714;8.738;2023-03-13T07:33:52;3.07;;;1.60;;
10985;SDS011;5546;48.714;8.738;2023-03-13T07:36:20;3.57;;;1.30;;
10985;SDS011;5546;48.714;8.738;2023-03-13T07:38:47;1.00;;;0.90;;
10985;SDS011;5546;48.714;8.738;2023-03-13T07:41:13;1.47;;;0.90;;
10985;SDS011;5546;48.714;8.738;2023-03-13T07:43:38;2.00;;;1.00;;
10985;SDS011;5546;48.714;8.738;2023-03-13T07:46:05;0.87;;;0.87;;
10985;SDS011;5546;48.714;8.738;2023-03-13T07:48:36;1.33;;;1.00;;
10985;SDS011;5546;48.714;8.738;2023-03-13T07:51:03;1.23;;;0.97;;
10985;SDS011;5546;48.714;8.738;2023-03-13T07:53:30;1.97;;;1.20;;
10985;SDS011;5546;48.714;8.738;2023-03-13T07:55:57;1.10;;;1.00;;
10985;SDS011;5546;48.714;8.738;2023-03-13T07:58:31;1.43;;;1.33;;
10985;SDS011;5546;48.714;8.738;2023-03-13T08:00:58;1.57;;;0.90;;
10985;SDS011;5546;48.714;8.738;2023-03-13T08:03:24;1.60;;;1.00;;
10985;SDS011;5546;48.714;8.738;2023-03-13T08:06:01;1.20;;;0.90;;
10985;SDS011;5546;48.714;8.738;2023-03-13T08:08:37;1.80;;;1.00;;
10985;SDS011;5546;48.714;8.738;2023-03-13T08:11:37;1.87;;;1.13;;
10985;SDS011;5546;48.714;8.738;2023-03-13T08:13:56;1.10;;;1.00;;
10985;SDS011;5546;48.714;8.738;2023-03-13T08:16:23;1.37;;;1.00;;
10985;SDS011;5546;48.714;8.738;2023-03-13T08:18:54;1.07;;;1.00;;
10985;SDS011;5546;48.714;8.738;2023-03-13T08:21:22;1.20;;;0.83;;
10985;SDS011;5546;48.714;8.738;2023-03-13T08:23:54;1.27;;;1.03;;
10985;SDS011;5546;48.714;8.738;2023-03-13T08:26:22;1.20;;;1.10;;
10985;SDS011;5546;48.714;8.738;2023-03-13T08:28:51;1.23;;;1.13;;
10985;SDS011;5546;48.714;8.738;2023-03-13T08:31:28;1.33;;;1.10;;
10985;SDS011;5546;48.714;8.738;2023-03-13T08:33:56;1.83;;;1.20;;
10985;SDS011;5546;48.714;8.738;2023-03-13T08:38:49;2.23;;;1.00;;
10985;SDS011;5546;48.714;8.738;2023-03-13T08:41:23;1.03;;;0.83;;
10985;SDS011;5546;48.714;8.738;2023-03-13T08:43:52;1.87;;;1.30;;
10985;SDS011;5546;48.714;8.738;2023-03-13T08:46:18;2.33;;;1.20;;
10985;SDS011;5546;48.714;8.738;2023-03-13T08:48:44;2.80;;;1.70;;
10985;SDS011;5546;48.714;8.738;2023-03-13T08:51:13;1.40;;;1.03;;
10985;SDS011;5546;48.714;8.738;2023-03-13T08:53:40;1.40;;;1.23;;
10985;SDS011;5546;48.714;8.738;2023-03-13T08:56:11;1.77;;;1.10;;
10985;SDS011;5546;48.714;8.738;2023-03-13T08:58:38;2.60;;;2.00;;
10985;SDS011;5546;48.714;8.738;2023-03-13T09:01:05;2.20;;;1.90;;
10985;SDS011;5546;48.714;8.738;2023-03-13T09:03:35;1.67;;;1.40;;
10985;SDS011;5546;48.714;8.738;2023-03-13T09:06:01;2.23;;;1.90;;
10985;SDS011;5546;48.714;8.738;2023-03-13T09:08:28;2.77;;;1.37;;
10985;SDS011;5546;48.714;8.738;2023-03-13T09:11:05;1.27;;;1.00;;
10985;SDS011;5546;48.714;8.738;2023-03-13T09:13:36;2.00;;;1.33;;
10985;SDS011;5546;48.714;8.738;2023-03-13T09:16:08;1.17;;;1.03;;
10985;SDS011;5546;48.714;8.738;2023-03-13T09:18:35;3.20;;;1.10;;
10985;SDS011;5546;48.714;8.738;2023-03-13T09:21:01;2.80;;;1.40;;
10985;SDS011;5546;48.714;8.738;2023-03-13T09:23:29;1.93;;;1.20;;
10985;SDS011;5546;48.714;8.738;2023-03-13T09:25:55;2.13;;;1.10;;
10985;SDS011;5546;48.714;8.738;2023-03-13T09:28:22;2.00;;;1.20;;
10985;SDS011;5546;48.714;8.738;2023-03-13T09:30:49;1.17;;;1.07;;
10985;SDS011;5546;48.714;8.738;2023-03-13T09:33:15;2.23;;;2.07;;
10985;SDS011;5546;48.714;8.738;2023-03-13T09:35:41;2.80;;;2.23;;
10985;SDS011;5546;48.714;8.738;2023-03-13T09:38:07;2.93;;;1.40;;
10985;SDS011;5546;48.714;8.738;2023-03-13T09:40:46;1.90;;;1.53;;
10985;SDS011;5546;48.714;8.738;2023-03-13T09:46:17;2.17;;;1.67;;
10985;SDS011;5546;48.714;8.738;2023-03-13T09:48:49;3.33;;;1.60;;
10985;SDS011;5546;48.714;8.738;2023-03-13T09:51:41;1.50;;;1.10;;
10985;SDS011;5546;48.714;8.738;2023-03-13T09:54:21;2.83;;;1.30;;
10985;SDS011;5546;48.714;8.738;2023-03-13T10:00:12;1.30;;;1.20;;
10985;SDS011;5546;48.714;8.738;2023-03-13T10:02:36;2.40;;;1.25;;
10985;SDS011;5546;48.714;8.738;2023-03-13T10:05:45;1.75;;;1.20;;
10985;SDS011;5546;48.714;8.738;2023-03-13T10:15:59;2.28;;;1.40;;
10985;SDS011;5546;48.714;8.738;2023-03-13T10:18:30;1.30;;;1.20;;
10985;SDS011;5546;48.714;8.738;2023-03-13T10:21:00;1.38;;;1.20;;
10985;SDS011;5546;48.714;8.738;2023-03-13T10:23:48;1.58;;;1.33;;
10985;SDS011;5546;48.714;8.738;2023-03-13T10:26:22;2.33;;;1.45;;
10985;SDS011;5546;48.714;8.738;2023-03-13T10:28:58;2.30;;;1.42;;
10985;SDS011;5546;48.714;8.738;2023-03-13T10:31:34;3.30;;;1.40;;
10985;SDS011;5546;48.714;8.738;2023-03-13T10:34:09;2.38;;;1.50;;
10985;SDS011;5546;48.714;8.738;2023-03-13T10:36:47;2.38;;;1.50;;
10985;SDS011;5546;48.714;8.738;2023-03-13T10:39:15;2.90;;;1.27;;
10985;SDS011;5546;48.714;8.738;2023-03-13T10:41:47;1.80;;;1.35;;
10985;SDS011;5546;48.714;8.738;2023-03-13T10:44:17;4.15;;;1.60;;
10985;SDS011;5546;48.714;8.738;2023-03-13T10:46:45;2.85;;;1.50;;
10985;SDS011;5546;48.714;8.738;2023-03-13T10:49:14;1.52;;;1.30;;
10985;SDS011;5546;48.714;8.738;2023-03-13T10:51:45;2.20;;;1.30;;
10985;SDS011;5546;48.714;8.738;2023-03-13T10:54:20;2.17;;;1.30;;
10985;SDS011;5546;48.714;8.738;2023-03-13T10:56:46;3.92;;;1.27;;
10985;SDS011;5546;48.714;8.738;2023-03-13T10:59:23;2.28;;;1.60;;
10985;SDS011;5546;48.714;8.738;2023-03-13T11:01:51;2.60;;;1.90;;
10985;SDS011;5546;48.714;8.738;2023-03-13T11:04:32;3.72;;;1.70;;
10985;SDS011;5546;48.714;8.738;2023-03-13T11:07:03;1.95;;;1.45;;
10985;SDS011;5546;48.714;8.738;2023-03-13T11:09:30;1.85;;;1.10;;
10985;SDS011;5546;48.714;8.738;2023-03-13T11:12:02;1.63;;;1.20;;
10985;SDS011;5546;48.714;8.738;2023-03-13T11:14:44;4.78;;;1.60;;
10985;SDS011;5546;48.714;8.738;2023-03-13T11:17:12;3.45;;;1.20;;
10985;SDS011;5546;48.714;8.738;2023-03-13T11:22:49;2.47;;;1.75;;
10985;SDS011;5546;48.714;8.738;2023-03-13T11:25:34;3.13;;;1.85;;
10985;SDS011;5546;48.714;8.738;2023-03-13T11:31:27;2.83;;;1.00;;
10985;SDS011;5546;48.714;8.738;2023-03-13T11:50:48;1.33;;;1.13;;
10985;SDS011;5546;48.714;8.738;2023-03-13T12:01:15;2.38;;;1.27;;
10985;SDS011;5546;48.714;8.738;2023-03-13T12:06:31;1.25;;;1.10;;
10985;SDS011;5546;48.714;8.738;2023-03-13T12:11:36;3.67;;;1.05;;
10985;SDS011;5546;48.714;8.738;2023-03-13T12:14:14;1.38;;;1.20;;
10985;SDS011;5546;48.714;8.738;2023-03-13T12:16:47;1.60;;;1.20;;
10985;SDS011;5546;48.714;8.738;2023-03-13T12:19:19;1.63;;;1.20;;
10985;SDS011;5546;48.714;8.738;2023-03-13T12:21:53;3.13;;;1.55;;
10985;SDS011;5546;48.714;8.738;2023-03-13T12:24:39;4.20;;;1.60;;
10985;SDS011;5546;48.714;8.738;2023-03-13T12:27:12;2.28;;;1.25;;
10985;SDS011;5546;48.714;8.738;2023-03-13T12:29:48;6.35;;;1.50;;
10985;SDS011;5546;48.714;8.738;2023-03-13T12:35:31;2.25;;;1.20;;
10985;SDS011;5546;48.714;8.738;2023-03-13T12:43:19;1.92;;;1.30;;
10985;SDS011;5546;48.714;8.738;2023-03-13T12:45:59;1.92;;;1.40;;
10985;SDS011;5546;48.714;8.738;2023-03-13T12:57:09;4.53;;;1.05;;
10985;SDS011;5546;48.714;8.738;2023-03-13T12:59:57;2.72;;;1.20;;
10985;SDS011;5546;48.714;8.738;2023-03-13T13:02:29;1.20;;;1.00;;
10985;SDS011;5546;48.714;8.738;2023-03-13T13:04:56;3.05;;;1.23;;
10985;SDS011;5546;48.714;8.738;2023-03-13T13:07:34;1.40;;;1.20;;
10985;SDS011;5546;48.714;8.738;2023-03-13T13:10:10;3.50;;;1.48;;
10985;SDS011;5546;48.714;8.738;2023-03-13T13:15:41;1.50;;;1.20;;
10985;SDS011;5546;48.714;8.738;2023-03-13T13:18:23;1.77;;;1.30;;
10985;SDS011;5546;48.714;8.738;2023-03-13T13:23:32;3.97;;;1.02;;
10985;SDS011;5546;48.714;8.738;2023-03-13T13:28:50;3.25;;;1.10;;
10985;SDS011;5546;48.714;8.738;2023-03-13T13:36:58;3.40;;;1.00;;
10985;SDS011;5546;48.714;8.738;2023-03-13T13:39:46;1.85;;;1.23;;
10985;SDS011;5546;48.714;8.738;2023-03-13T13:44:58;3.17;;;1.30;;
10985;SDS011;5546;48.714;8.738;2023-03-13T13:47:28;1.52;;;1.10;;
10985;SDS011;5546;48.714;8.738;2023-03-13T13:50:01;1.63;;;0.90;;
10985;SDS011;5546;48.714;8.738;2023-03-13T13:52:33;2.42;;;1.42;;
10985;SDS011;5546;48.714;8.738;2023-03-13T13:55:01;3.78;;;1.10;;
10985;SDS011;5546;48.714;8.738;2023-03-13T13:57:29;1.83;;;0.98;;
10985;SDS011;5546;48.714;8.738;2023-03-13T14:02:46;3.35;;;1.17;;
10985;SDS011;5546;48.714;8.738;2023-03-13T14:05:19;1.40;;;1.20;;
10985;SDS011;5546;48.714;8.738;2023-03-13T14:08:35;4.00;;;1.17;;
10985;SDS011;5546;48.714;8.738;2023-03-13T14:10:47;1.52;;;1.17;;
10985;SDS011;5546;48.714;8.738;2023-03-13T14:13:19;3.08;;;1.20;;
10985;SDS011;5546;48.714;8.738;2023-03-13T14:15:55;5.55;;;1.10;;
10985;SDS011;5546;48.714;8.738;2023-03-13T14:20:54;3.13;;;1.45;;
10985;SDS011;5546;48.714;8.738;2023-03-13T14:23:31;2.85;;;1.50;;
10985;SDS011;5546;48.714;8.738;2023-03-13T14:26:10;1.25;;;1.10;;
10985;SDS011;5546;48.714;8.738;2023-03-13T14:28:42;5.07;;;1.33;;
10985;SDS011;5546;48.714;8.738;2023-03-13T14:31:10;3.83;;;1.20;;
10985;SDS011;5546;48.714;8.738;2023-03-13T14:33:46;3.03;;;1.50;;
10985;SDS011;5546;48.714;8.738;2023-03-13T14:36:12;3.22;;;1.30;;
10985;SDS011;5546;48.714;8.738;2023-03-13T14:38:38;2.55;;;1.70;;
10985;SDS011;5546;48.714;8.738;2023-03-13T14:41:05;3.38;;;2.75;;
10985;SDS011;5546;48.714;8.738;2023-03-13T14:43:46;1.48;;;1.15;;
10985;SDS011;5546;48.714;8.738;2023-03-13T14:46:33;2.10;;;1.40;;
10985;SDS011;5546;48.714;8.738;2023-03-13T14:49:07;2.83;;;1.20;;
10985;SDS011;5546;48.714;8.738;2023-03-13T14:51:42;1.67;;;1.30;;
10985;SDS011;5546;48.714;8.738;2023-03-13T14:57:10;2.05;;;1.42;;
10985;SDS011;5546;48.714;8.738;2023-03-13T14:59:39;2.30;;;1.30;;
10985;SDS011;5546;48.714;8.738;2023-03-13T15:02:14;1.50;;;1.10;;
10985;SDS011;5546;48.714;8.738;2023-03-13T15:07:38;2.00;;;1.10;;
10985;SDS011;5546;48.714;8.738;2023-03-13T15:10:18;1.85;;;1.02;;
10985;SDS011;5546;48.714;8.738;2023-03-13T15:12:45;3.05;;;1.20;;
10985;SDS011;5546;48.714;8.738;2023-03-13T15:15:11;1.65;;;1.30;;
10985;SDS011;5546;48.714;8.738;2023-03-13T15:17:36;1.50;;;1.05;;
10985;SDS011;5546;48.714;8.738;2023-03-13T15:20:02;4.85;;;1.30;;
10985;SDS011;5546;48.714;8.738;2023-03-13T15:22:31;2.20;;;1.20;;
10985;SDS011;5546;48.714;8.738;2023-03-13T15:25:00;3.55;;;1.25;;
10985;SDS011;5546;48.714;8.738;2023-03-13T15:27:26;2.22;;;1.20;;
10985;SDS011;5546;48.714;8.738;2023-03-13T15:29:52;1.10;;;1.00;;
10985;SDS011;5546;48.714;8.738;2023-03-13T15:32:25;3.92;;;1.52;;
10985;SDS011;5546;48.714;8.738;2023-03-13T15:34:56;1.33;;;1.10;;
10985;SDS011;5546;48.714;8.738;2023-03-13T15:37:29;3.10;;;1.20;;
10985;SDS011;5546;48.714;8.738;2023-03-13T15:39:55;2.38;;;1.52;;
10985;SDS011;5546;48.714;8.738;2023-03-13T15:42:22;2.63;;;1.75;;
10985;SDS011;5546;48.714;8.738;2023-03-13T15:44:48;4.22;;;1.27;;
10985;SDS011;5546;48.714;8.738;2023-03-13T15:47:16;3.63;;;1.40;;
10985;SDS011;5546;48.714;8.738;2023-03-13T15:49:44;2.60;;;1.30;;
10985;SDS011;5546;48.714;8.738;2023-03-13T15:52:13;2.75;;;1.25;;
10985;SDS011;5546;48.714;8.738;2023-03-13T15:54:46;1.48;;;1.33;;
10985;SDS011;5546;48.714;8.738;2023-03-13T15:57:13;2.42;;;1.42;;
10985;SDS011;5546;48.714;8.738;2023-03-13T15:59:40;4.63;;;1.60;;
10985;SDS011;5546;48.714;8.738;2023-03-13T16:02:16;1.80;;;1.30;;
10985;SDS011;5546;48.714;8.738;2023-03-13T16:04:43;3.85;;;1.52;;
10985;SDS011;5546;48.714;8.738;2023-03-13T16:07:10;2.55;;;1.30;;
10985;SDS011;5546;48.714;8.738;2023-03-13T16:09:37;3.15;;;1.30;;
10985;SDS011;5546;48.714;8.738;2023-03-13T16:12:03;2.25;;;1.50;;
10985;SDS011;5546;48.714;8.738;2023-03-13T16:14:29;6.35;;;1.60;;
10985;SDS011;5546;48.714;8.738;2023-03-13T16:16:55;3.55;;;1.60;;
10985;SDS011;5546;48.714;8.738;2023-03-13T16:19:21;7.75;;;1.52;;
10985;SDS011;5546;48.714;8.738;2023-03-13T16:21:47;3.60;;;1.50;;
10985;SDS011;5546;48.714;8.738;2023-03-13T16:24:21;2.57;;;1.33;;
10985;SDS011;5546;48.714;8.738;2023-03-13T16:26:46;6.73;;;1.70;;
10985;SDS011;5546;48.714;8.738;2023-03-13T16:29:12;5.67;;;1.40;;
10985;SDS011;5546;48.714;8.738;2023-03-13T16:31:39;2.13;;;1.50;;
10985;SDS011;5546;48.714;8.738;2023-03-13T16:34:05;2.83;;;1.60;;
10985;SDS011;5546;48.714;8.738;2023-03-13T16:36:32;5.33;;;1.73;;
10985;SDS011;5546;48.714;8.738;2023-03-13T16:38:58;5.90;;;1.70;;
10985;SDS011;5546;48.714;8.738;2023-03-13T16:41:26;3.30;;;1.40;;
10985;SDS011;5546;48.714;8.738;2023-03-13T16:43:52;4.53;;;1.67;;
10985;SDS011;5546;48.714;8.738;2023-03-13T16:46:19;6.00;;;1.47;;
10985;SDS011;5546;48.714;8.738;2023-03-13T16:48:51;2.63;;;1.40;;
10985;SDS011;5546;48.714;8.738;2023-03-13T16:53:44;3.23;;;1.70;;
10985;SDS011;5546;48.714;8.738;2023-03-13T16:56:15;3.83;;;1.50;;
10985;SDS011;5546;48.714;8.738;2023-03-13T16:58:42;4.07;;;1.40;;
10985;SDS011;5546;48.714;8.738;2023-03-13T17:01:08;3.63;;;2.10;;
10985;SDS011;5546;48.714;8.738;2023-03-13T17:03:34;3.73;;;1.77;;
10985;SDS011;5546;48.714;8.738;2023-03-13T17:06:00;5.10;;;2.20;;
10985;SDS011;5546;48.714;8.738;2023-03-13T17:08:26;6.10;;;1.80;;
10985;SDS011;5546;48.714;8.738;2023-03-13T17:10:51;3.97;;;1.80;;